Latest Coastal Weather Observations for Minlaton Airport

IDS60701

Issued at 12:11 pm CDT Tuesday 23 December 2014 (issued every 10 minutes, with the page automatically refreshed every 10 minutes)

About coastal observations | Map of coastal stations | Coastal observations for SA | Marine services | Other Formats
Station Details ID: 022031 Name: MINLATON AERO Lat: -34.75 Lon: 137.53 Height: 32.0 m
Data from the previous 72 hours. | See also: Recent months at Minlaton Airport
Date/Time
CDT
Temp

°C
Wind Pressure Rain
since 9am
mm
Weather Cloud Vis
km
Sea
Height
m
Swell
Dir
 
Speed
knots
Gust
knots
hPa Trend Height
m
Period
s
Dir
23/12:00pm 19.7 SW 16 20 1015.0 - 0.0 - - - - - - -
23/11:30am 19.2 SSW 17 21 1014.9 - 0.0 - - - - - - -
23/11:00am 17.9 SW 19 24 1014.6 - 0.0 - - - - - - -
23/10:30am 17.2 S 12 16 1014.6 - 0.0 - - - - - - -
23/10:00am 17.2 SSW 13 18 1014.4 - 0.0 - - - - - - -
23/09:30am 16.8 SW 10 16 1014.2 - 0.0 - - - - - - -
23/09:00am 17.3 SSW 13 17 1013.9 - 1.8 - - - - - - -
23/08:30am 17.4 SSW 12 15 1013.5 - 1.8 - - - - - - -
23/08:00am 17.2 SSW 7 9 1013.2 - 1.8 - - - - - - -
23/07:30am 16.0 S 6 7 1012.8 - 1.8 - - - - - - -
23/07:00am 15.4 SSW 7 10 1012.3 - 1.8 - - - - - - -
23/06:30am 14.4 SSW 7 8 1012.0 - 1.8 - - - - - - -
23/06:00am 14.5 SSW 8 10 1011.6 - 1.8 - - - - - - -
23/05:30am 15.2 SSW 10 14 1011.2 - 1.8 - - - - - - -
23/05:00am 15.5 SSW 11 14 1010.8 - 1.8 - - - - - - -
23/04:30am 16.4 SSW 10 13 1010.7 - 1.8 - - - - - - -
23/04:00am 16.6 SSW 10 12 1010.6 - 1.8 - - - - - - -
23/03:30am 16.6 SSW 10 12 1010.7 - 1.8 - - - - - - -
23/03:00am 17.0 SSW 7 9 1010.6 - 1.8 - - - - - - -
23/02:30am 17.0 S 8 9 1010.5 - 1.8 - - - - - - -
23/02:00am 17.1 S 9 11 1010.2 - 1.8 - - - - - - -
23/01:30am 17.5 S 9 11 1010.3 - 1.8 - - - - - - -
23/01:00am 17.6 SSW 7 9 1010.1 - 1.8 - - - - - - -
23/12:30am 17.6 SSW 6 7 1010.1 - 1.8 - - - - - - -
23/12:00am 17.7 S 7 9 1009.8 - 1.8 - - - - - - -
 
Date/Time
CDT
Temp

°C
Wind Pressure Rain
since 9am
mm
Weather Cloud Vis
km
Sea
Height
m
Swell
Dir
 
Speed
knots
Gust
knots
hPa Trend Height
m
Period
s
Dir
22/11:30pm 17.9 SSW 7 9 1010.0 - 1.8 - - - - - - -
22/11:00pm 18.0 S 8 9 1009.9 - 1.8 - - - - - - -
22/10:30pm 18.0 S 8 11 1009.8 - 1.8 - - - - - - -
22/10:00pm 18.6 S 10 13 1009.6 - 1.8 - - - - - - -
22/09:30pm 19.0 SW 6 6 1009.3 - 1.8 - - - - - - -
22/09:00pm 18.9 SW 4 5 1009.1 - 1.8 - - - - - - -
22/08:30pm 19.3 SSW 5 6 1008.7 - 1.8 - - - - - - -
22/08:00pm 19.9 SW 4 5 1008.6 - 1.8 - - - - - - -
22/07:30pm 20.0 SW 4 4 1008.4 - 1.8 - - - - - - -
22/07:00pm 20.3 CALM 0 0 1007.8 - 1.8 - - - - - - -
22/06:30pm 19.5 NE 6 8 1007.3 - 1.8 - - - - - - -
22/06:00pm 19.3 ENE 5 7 1006.9 - 1.8 Recent precip. - - - - - -
22/05:30pm 19.1 NE 11 14 1006.3 - 1.8 - - - - - - -
22/05:00pm 19.4 N 9 11 1007.7 - 1.6 - - - - - - -
22/04:30pm 20.1 NE 7 10 1007.9 - 0.8 - - - - - - -
22/04:00pm 21.2 ESE 9 11 1008.4 - 0.0 - - - - - - -
22/03:30pm 21.4 SE 10 12 1008.2 - 0.0 - - - - - - -
22/03:00pm 21.4 SSE 9 11 1008.2 - 0.0 - - - - - - -
22/02:30pm 21.8 SE 8 10 1008.3 - 0.0 - - - - - - -
22/02:00pm 22.2 SE 8 10 1008.6 - 0.0 - - - - - - -
22/01:30pm 22.5 ESE 9 13 1008.7 - 0.0 - - - - - - -
22/01:00pm 21.6 E 9 12 1009.4 - 0.0 - - - - - - -
22/12:30pm 21.6 ENE 10 13 1009.9 - 0.0 - - - - - - -
22/12:00pm 20.8 ESE 9 11 1009.6 - 0.0 - - - - - - -
22/11:30am 19.5 SSE 11 15 1009.5 - 0.0 - - - - - - -
22/11:00am 18.9 SSE 10 12 1009.3 - 0.0 - - - - - - -
22/10:30am 18.7 S 12 16 1008.5 - 0.0 - - - - - - -
22/10:00am 19.4 SSW 10 14 1009.2 - 0.0 - - - - - - -
22/09:30am 20.0 S 10 13 1008.0 - 0.0 - - - - - - -
22/09:00am 19.9 SSW 8 11 1008.5 - 0.0 - - - - - - -
22/08:30am 19.6 S 9 11 1007.9 - 0.0 - - - - - - -
22/08:00am 19.6 SW 9 12 1008.2 - 0.0 - - - - - - -
22/07:30am 19.6 SSE 10 12 1006.7 - 0.0 - - - - - - -
22/07:00am 19.4 SE 9 11 1005.9 - 0.0 - - - - - - -
22/06:30am 19.2 ESE 15 19 1005.6 - 0.0 - - - - - - -
22/06:00am 19.1 E 15 20 1005.6 - 0.0 - - - - - - -
22/05:30am 18.9 ESE 14 19 1005.7 - 0.0 - - - - - - -
22/05:00am 18.7 SSE 13 17 1005.7 - 0.0 - - - - - - -
22/04:30am 18.5 SE 15 20 1005.9 - 0.0 - - - - - - -
22/04:00am 18.3 SSE 14 17 1006.5 - 0.0 - - - - - - -
22/03:30am 18.5 SSE 14 18 1006.5 - 0.0 - - - - - - -
22/03:00am 18.2 SSE 13 17 1006.8 - 0.0 - - - - - - -
22/02:30am 17.9 S 11 18 1007.5 - 0.0 - - - - - - -
22/02:00am 17.6 SSE 16 21 1007.1 - 0.0 - - - - - - -
22/01:30am 17.8 SSE 18 23 1008.2 - 0.0 - - - - - - -
22/01:00am 17.9 SSE 15 20 1009.2 - 0.0 - - - - - - -
22/12:30am 17.9 SSE 17 22 1009.6 - 0.0 - - - - - - -
22/12:00am 17.9 SSE 18 26 1009.7 - 0.0 - - - - - - -
 
Date/Time
CDT
Temp

°C
Wind Pressure Rain
since 9am
mm
Weather Cloud Vis
km
Sea
Height
m
Swell
Dir
 
Speed
knots
Gust
knots
hPa Trend Height
m
Period
s
Dir
21/11:30pm 18.1 SSE 19 24 1009.7 - 0.0 - - - - - - -
21/11:00pm 18.5 SSE 20 25 1010.4 - 0.0 - - - - - - -
21/10:30pm 18.9 SSE 21 27 1009.6 - 0.0 - - - - - - -
21/10:06pm 19.2 SSE 20 30 1009.6 - 0.0 - - - - - - -
21/10:00pm 19.2 SSE 20 26 1010.0 - 0.0 - - - - - - -
21/09:30pm 19.3 SSE 17 21 1010.8 - 0.0 - - - - - - -
21/09:00pm 19.6 S 17 23 1010.8 - 0.0 - - - - - - -
21/08:30pm 20.2 S 12 16 1010.7 - 0.0 - - - - - - -
21/08:00pm 21.1 S 13 17 1009.8 - 0.0 - - - - - - -
21/07:30pm 23.5 S 13 17 1009.2 - 0.0 - - - - - - -
21/07:00pm 24.4 SSE 14 21 1007.9 - 0.0 - - - - - - -
21/06:30pm 25.9 SE 16 21 1007.5 - 0.0 - - - - - - -
21/06:00pm 27.0 SE 18 23 1007.4 - 0.0 - - - - - - -
21/05:30pm 28.3 ESE 20 27 1007.3 - 0.0 - - - - - - -
21/05:00pm 28.0 SE 19 25 1007.8 - 0.0 - - - - - - -
21/04:30pm 28.5 SE 19 22 1008.0 - 0.0 - - - - - - -
21/04:00pm 31.2 SE 17 23 1008.7 - 0.0 - - - - - - -
21/03:30pm 30.8 SSE 18 22 1009.0 - 0.0 - - - - - - -
21/03:00pm 32.6 SSE 12 18 1009.2 - 0.0 - - - - - - -
21/02:30pm 32.7 S 7 10 1009.7 - 0.0 - - - - - - -
21/02:00pm 32.0 WSW 9 11 1010.5 - 0.0 - - - - - - -
21/01:30pm 31.9 WSW 7 12 1010.8 - 0.0 - - - - - - -
21/01:00pm 30.1 WSW 9 15 1011.4 - 0.0 - - - - - - -
21/12:30pm 30.6 WNW 12 18 1011.3 - 0.0 - - - - - - -
21/12:00pm 32.8 NNW 17 22 1011.2 - 0.0 - - - - - - -
21/11:30am 32.0 NNW 19 25 1010.9 - 0.0 - - - - - - -
21/11:00am 31.5 NNW 22 26 1010.8 - 0.0 - - - - - - -
21/10:30am 32.8 NNW 22 27 1010.5 - 0.0 - - - - - - -
21/10:00am 31.7 NNW 21 27 1010.7 - 0.0 - - - - - - -
21/09:30am 32.0 N 18 24 1010.6 - 0.0 - - - - - - -
21/09:00am 31.5 N 15 20 1010.5 - 0.0 - - - - - - -
21/08:30am 28.6 N 15 19 1010.4 - 0.0 - - - - - - -
21/08:00am 26.1 NE 15 19 1009.9 - 0.0 - - - - - - -
21/07:30am 22.9 NE 11 14 1010.3 - 0.0 - - - - - - -
21/07:00am 20.2 ENE 11 16 1010.1 - 0.0 - - - - - - -
21/06:30am 17.9 E 13 18 1009.8 - 0.0 - - - - - - -
21/06:00am 17.8 ENE 14 16 1009.7 - 0.0 - - - - - - -
21/05:30am 17.5 E 13 15 1009.7 - 0.0 - - - - - - -
21/05:00am 17.1 E 14 16 1009.8 - 0.0 - - - - - - -
21/04:30am 17.1 E 14 16 1009.9 - 0.0 - - - - - - -
21/04:00am 16.9 E 14 16 1010.1 - 0.0 - - - - - - -
21/03:30am 17.2 E 14 16 1010.2 - 0.0 - - - - - - -
21/03:00am 16.9 E 13 15 1010.5 - 0.0 - - - - - - -
21/02:30am 16.9 E 14 17 1010.8 - 0.0 - - - - - - -
21/02:00am 16.9 E 12 16 1011.1 - 0.0 - - - - - - -
21/01:30am 15.7 SSE 5 7 1012.2 - 0.0 - - - - - - -
21/01:00am 17.2 E 12 14 1012.1 - 0.0 - - - - - - -
21/12:30am 17.4 ESE 12 18 1012.2 - 0.0 - - - - - - -
21/12:00am 17.6 ESE 14 17 1012.2 - 0.0 - - - - - - -
 
Date/Time
CDT
Temp

°C
Wind Pressure Rain
since 9am
mm
Weather Cloud Vis
km
Sea
Height
m
Swell
Dir
 
Speed
knots
Gust
knots
hPa Trend Height
m
Period
s
Dir
20/11:30pm 17.9 ESE 15 18 1012.3 - 0.0 - - - - - - -
20/11:00pm 18.1 ESE 15 19 1012.6 - 0.0 - - - - - - -
20/10:30pm 18.2 SE 12 16 1012.9 - 0.0 - - - - - - -
20/10:00pm 18.4 SE 11 13 1013.3 - 0.0 - - - - - - -
20/09:30pm 19.1 SE 10 14 1013.4 - 0.0 - - - - - - -
20/09:00pm 19.9 SE 11 14 1013.5 - 0.0 - - - - - - -
20/08:30pm 21.0 SE 10 14 1013.6 - 0.0 - - - - - - -
20/08:00pm 23.0 SE 13 15 1013.6 - 0.0 - - - - - - -
20/07:30pm 25.0 SSE 12 15 1013.5 - 0.0 - - - - - - -
20/07:00pm 26.1 SE 12 15 1013.2 - 0.0 - - - - - - -
20/06:30pm 27.2 SE 11 14 1013.0 - 0.0 - - - - - - -
20/06:00pm 27.9 SSE 10 15 1012.9 - 0.0 - - - - - - -
20/05:30pm 28.3 SSE 9 15 1013.0 - 0.0 - - - - - - -
20/05:00pm 28.0 SE 7 11 1013.4 - 0.0 - - - - - - -
20/04:30pm 28.3 SSW 7 11 1013.9 - 0.0 - - - - - - -
20/04:00pm 28.4 SSW 8 13 1014.2 - 0.0 - - - - - - -
20/03:30pm 28.0 E 5 11 1014.4 - 0.0 - - - - - - -
20/03:00pm 28.1 S 9 15 1014.8 - 0.0 - - - - - - -
20/02:30pm 26.9 SE 13 19 1015.2 - 0.0 - - - - - - -
20/02:00pm 27.3 WSW 11 15 1015.7 - 0.0 - - - - - - -
20/01:30pm 26.5 WSW 11 14 1016.3 - 0.0 - - - - - - -
20/01:00pm 25.6 W 11 14 1016.8 - 0.0 - - - - - - -
20/12:30pm 25.3 WSW 10 14 1017.2 - 0.0 - - - - - - -

Other Formats:

Comma delimited format used in spreadsheet applications
http://www.bom.gov.au/fwo/IDS60701/IDS60701.95659.axf

JavaScript Object Notation format (JSON) in row-major order
http://www.bom.gov.au/fwo/IDS60701/IDS60701.95659.json